Time;durP1;ratioP1;P1;durP2;ratioP2;P2;SDS_P1;SDS_P2;PMS_P1;PMS_P2;Temp;Humidity;BMP_temperature;BMP_pressure;BME280_temperature;BME280_humidity;BME280_pressure;Samples;Min_cycle;Max_cycle;Signal;HPM_P1;HPM_P2
2024/02/18 00:02:06;;;;;;;5.70;3.40;;;;;;;5.26;79.55;100420.78;105801;1251;109895;-82
2024/02/18 00:04:33;;;;;;;7.00;4.80;;;;;;;5.17;79.49;100425.60;105847;1251;96689;-79
2024/02/18 00:07:00;;;;;;;7.70;4.80;;;;;;;5.10;79.62;100429.30;105816;1253;96673;-81
2024/02/18 00:09:27;;;;;;;6.90;4.10;;;;;;;5.05;79.63;100430.35;105912;1251;96584;-80
2024/02/18 00:11:54;;;;;;;5.80;3.40;;;;;;;5.00;79.41;100433.83;105740;1265;96584;-82
2024/02/18 00:14:21;;;;;;;10.40;3.80;;;;;;;4.96;79.51;100433.23;105781;1250;96597;-75
2024/02/18 00:16:47;;;;;;;7.40;4.00;;;;;;;4.92;79.78;100440.00;105830;1255;96573;-80
2024/02/18 00:19:14;;;;;;;;;;;;;;;4.88;79.60;100442.57;105911;1251;96626;-79
2024/02/18 00:21:40;;;;;;;6.10;3.70;;;;;;;4.84;79.63;100435.84;105685;1254;96787;-79
2024/02/18 00:24:08;;;;;;;8.20;4.30;;;;;;;4.84;79.45;100436.55;105973;1251;96670;-75
2024/02/18 00:26:36;;;;;;;5.60;3.50;;;;;;;4.85;79.56;100438.79;105899;1250;96602;-80
2024/02/18 00:29:20;;;;;;;9.40;4.10;;;;;;;4.83;79.54;100442.38;105822;1253;108483;-78
2024/02/18 00:31:47;;;;;;;5.60;3.70;;;;;;;4.80;79.61;100443.69;105971;1254;97496;-79
2024/02/18 00:34:20;;;;;;;6.10;3.90;;;;;;;4.80;79.65;100446.30;108740;1250;94618;-80
2024/02/18 00:36:48;;;;;;;6.60;4.10;;;;;;;4.81;79.55;100449.10;108861;1250;110378;-80
2024/02/18 00:39:15;;;;;;;7.00;3.50;;;;;;;4.83;79.41;100453.62;106552;1250;97511;-81
2024/02/18 00:41:42;;;;;;;6.40;3.40;;;;;;;4.86;79.49;100454.95;108847;1250;94570;-80
2024/02/18 00:44:09;;;;;;;5.50;3.80;;;;;;;4.88;79.46;100455.08;108769;1250;94610;-78
2024/02/18 00:46:36;;;;;;;7.10;4.00;;;;;;;4.91;79.44;100459.70;108899;1250;94598;-81
2024/02/18 00:49:17;;;;;;;7.90;4.20;;;;;;;4.93;79.58;100459.48;108850;1250;109510;-79
2024/02/18 00:51:45;;;;;;;6.70;3.60;;;;;;;4.95;79.63;100462.79;108885;1250;95114;-82
2024/02/18 00:54:12;;;;;;;5.60;3.30;;;;;;;4.98;79.49;100467.09;108903;1249;94320;-78
2024/02/18 00:56:38;;;;;;;6.00;3.50;;;;;;;5.00;79.40;100466.51;105831;1250;97064;-81
2024/02/18 00:59:05;;;;;;;;;;;;;;;5.03;79.42;100466.63;105892;1254;96662;-80
2024/02/18 01:01:31;;;;;;;5.30;3.50;;;;;;;5.03;79.76;100465.56;105920;1250;96600;-80
2024/02/18 01:03:58;;;;;;;6.50;3.40;;;;;;;5.03;79.49;100464.84;106017;1253;108141;-80
2024/02/18 01:06:24;;;;;;;8.50;3.90;;;;;;;5.03;79.60;100467.48;105458;1254;97915;-79
2024/02/18 01:08:51;;;;;;;7.70;4.20;;;;;;;5.03;79.85;100474.70;105827;1253;96511;-79
2024/02/18 01:11:18;;;;;;;5.80;3.70;;;;;;;5.02;79.47;100477.18;105892;1250;96673;-79
2024/02/18 01:13:44;;;;;;;6.50;3.80;;;;;;;5.00;79.41;100479.34;105960;1250;96586;-81
2024/02/18 01:16:11;;;;;;;6.70;3.70;;;;;;;4.99;79.72;100480.44;105668;1251;97180;-82
2024/02/18 01:18:42;;;;;;;6.70;3.60;;;;;;;4.99;79.33;100480.97;105762;1251;96609;-81
2024/02/18 01:21:09;;;;;;;5.90;3.20;;;;;;;4.98;79.62;100483.27;105814;1254;108897;-80
2024/02/18 01:23:35;;;;;;;6.60;3.30;;;;;;;4.95;79.71;100481.23;106072;1251;96580;-80
2024/02/18 01:26:03;;;;;;;4.50;2.70;;;;;;;4.96;79.42;100484.36;105924;1253;96533;-81
2024/02/18 01:28:29;;;;;;;4.40;2.80;;;;;;;4.96;79.67;100484.90;105890;1251;97016;-78
2024/02/18 01:30:56;;;;;;;6.50;2.70;;;;;;;4.96;79.64;100489.65;105254;1250;96597;-76
2024/02/18 01:33:23;;;;;;;5.80;2.90;;;;;;;4.93;79.39;100494.28;105376;1254;96687;-80
2024/02/18 01:35:50;;;;;;;4.30;3.00;;;;;;;4.92;79.53;100494.68;105817;1253;108075;-79
2024/02/18 01:38:16;;;;;;;;;;;;;;;4.92;79.34;100498.72;105724;1254;96549;-81
2024/02/18 01:40:43;;;;;;;5.10;3.00;;;;;;;4.91;79.50;100500.86;105598;1254;96667;-80
2024/02/18 01:43:09;;;;;;;;;;;;;;;4.90;79.33;100501.08;105956;1254;96608;-77
2024/02/18 01:45:36;;;;;;;5.30;2.40;;;;;;;4.85;79.47;100504.18;105692;1253;107167;-79
2024/02/18 01:48:02;;;;;;;;;;;;;;;4.84;79.26;100503.16;105781;1254;96571;-80
2024/02/18 01:50:29;;;;;;;3.70;1.90;;;;;;;4.81;79.36;100501.65;104914;1265;96686;-81
2024/02/18 01:52:57;;;;;;;4.00;2.30;;;;;;;4.78;79.27;100503.48;105753;1251;96667;-81
2024/02/18 01:55:25;;;;;;;5.20;2.60;;;;;;;4.75;79.21;100509.00;105700;1251;96579;-81
2024/02/18 01:57:52;;;;;;;3.50;2.50;;;;;;;4.72;79.38;100507.67;105805;1251;96674;-80
2024/02/18 02:00:21;;;;;;;3.50;2.20;;;;;;;4.71;79.21;100512.45;105927;1254;97894;-81
2024/02/18 02:02:49;;;;;;;2.90;2.00;;;;;;;4.69;79.05;100513.36;105892;1250;97086;-80
2024/02/18 02:05:19;;;;;;;3.80;2.80;;;;;;;4.69;78.87;100514.42;106103;1251;110449;-81
2024/02/18 02:07:50;;;;;;;3.50;2.00;;;;;;;4.69;79.04;100512.31;105719;1254;97009;-80
2024/02/18 02:10:17;;;;;;;2.80;1.80;;;;;;;4.70;79.15;100508.77;105730;1257;107644;-82
2024/02/18 02:12:44;;;;;;;6.10;2.90;;;;;;;4.74;78.95;100510.79;105926;1252;96581;-77
2024/02/18 02:15:11;;;;;;;6.00;3.90;;;;;;;4.75;78.96;100511.98;105874;1250;96587;-79
2024/02/18 02:17:38;;;;;;;6.30;2.30;;;;;;;4.76;79.04;100519.33;107021;1250;96586;-80
2024/02/18 02:20:09;;;;;;;3.40;2.20;;;;;;;4.74;78.63;100521.66;105871;1254;97911;-81
2024/02/18 02:22:37;;;;;;;3.40;2.70;;;;;;;4.75;78.84;100519.38;105533;1253;107626;-82
2024/02/18 02:25:08;;;;;;;3.80;2.60;;;;;;;4.76;78.71;100526.90;105820;1253;97514;-77
2024/02/18 02:27:41;;;;;;;4.40;2.80;;;;;;;4.76;78.49;100526.91;105873;1250;97807;-81
2024/02/18 02:30:08;;;;;;;5.30;2.30;;;;;;;4.77;78.32;100531.62;105797;1253;109604;-81
2024/02/18 02:32:35;;;;;;;2.80;1.80;;;;;;;4.77;78.34;100532.33;105900;1251;97534;-80
2024/02/18 02:35:03;;;;;;;3.50;2.10;;;;;;;4.75;78.34;100531.31;105687;1254;97277;-80
2024/02/18 02:37:30;;;;;;;3.80;2.00;;;;;;;4.77;78.72;100529.69;105677;1255;96605;-80
2024/02/18 02:39:56;;;;;;;3.00;1.90;;;;;;;4.78;78.54;100530.53;105714;1250;96599;-81
2024/02/18 02:42:23;;;;;;;;;;;;;;;4.79;78.23;100532.11;105633;1253;97938;-82
2024/02/18 02:44:49;;;;;;;5.60;3.70;;;;;;;4.76;78.25;100532.51;105882;1253;96589;-83
2024/02/18 02:47:16;;;;;;;;;;;;;;;4.77;78.12;100531.97;105787;1251;97972;-81
2024/02/18 02:49:42;;;;;;;6.00;3.30;;;;;;;4.76;78.28;100536.58;105473;1251;96572;-80
2024/02/18 02:52:09;;;;;;;3.40;2.50;;;;;;;4.76;78.29;100536.02;105451;1264;97540;-81
2024/02/18 02:54:35;;;;;;;3.20;2.30;;;;;;;4.76;78.17;100536.74;105641;1255;96683;-80
2024/02/18 02:57:02;;;;;;;4.20;2.00;;;;;;;4.76;77.91;100537.27;105730;1251;96587;-81
2024/02/18 02:59:29;;;;;;;4.40;2.00;;;;;;;4.78;77.99;100535.64;105798;1254;96530;-82
2024/02/18 03:01:55;;;;;;;3.30;2.10;;;;;;;4.79;78.32;100539.31;105415;1251;110105;-80
2024/02/18 03:04:22;;;;;;;;;;;;;;;4.77;77.66;100544.10;105706;1253;96706;-81
2024/02/18 03:06:48;;;;;;;3.00;1.90;;;;;;;4.76;77.94;100549.39;105614;1267;97013;-81
2024/02/18 03:09:17;;;;;;;;;;;;;;;4.76;77.68;100550.80;105476;1267;96609;-76
2024/02/18 03:11:43;;;;;;;4.20;3.20;;;;;;;4.74;77.69;100551.89;105441;1254;110527;-81
2024/02/18 03:14:09;;;;;;;;;;;;;;;4.73;77.64;100552.97;105714;1251;96651;-78
2024/02/18 03:16:36;;;;;;;7.00;2.50;;;;;;;4.72;77.54;100554.77;105642;1254;96623;-80
2024/02/18 03:19:04;;;;;;;3.30;2.30;;;;;;;4.72;77.55;100555.66;105556;1254;96672;-80
2024/02/18 03:21:30;;;;;;;5.60;3.40;;;;;;;4.71;77.47;100566.03;105719;1250;108952;-80
2024/02/18 03:23:57;;;;;;;5.60;3.00;;;;;;;4.70;77.38;100562.73;105924;1253;96616;-75
2024/02/18 03:26:25;;;;;;;6.60;3.40;;;;;;;4.70;77.27;100563.06;105012;1273;96736;-79
2024/02/18 03:28:52;;;;;;;7.30;3.30;;;;;;;4.70;77.20;100566.57;105709;1251;96582;-79
2024/02/18 03:31:19;;;;;;;7.30;3.40;;;;;;;4.72;77.15;100563.72;105732;1251;96676;-81
2024/02/18 03:33:46;;;;;;;8.10;4.40;;;;;;;4.72;77.26;100569.00;105727;1250;96562;-81
2024/02/18 03:36:13;;;;;;;10.10;5.30;;;;;;;4.71;77.08;100571.83;105702;1251;96589;-80
2024/02/18 03:38:39;;;;;;;8.40;5.60;;;;;;;4.72;77.08;100574.96;105735;1254;96590;-81
2024/02/18 03:41:07;;;;;;;;;;;;;;;4.73;77.13;100568.44;105430;1254;96609;-80
2024/02/18 03:43:34;;;;;;;9.30;4.30;;;;;;;4.71;77.15;100578.33;105762;1254;109770;-81
2024/02/18 03:46:01;;;;;;;9.30;4.00;;;;;;;4.73;77.15;100580.59;105917;1254;97615;-80
2024/02/18 03:48:28;;;;;;;7.90;3.20;;;;;;;4.72;76.98;100579.02;106158;1257;96529;-82
2024/02/18 03:50:55;;;;;;;8.00;4.10;;;;;;;4.70;76.85;100582.41;105773;1254;96641;-79
2024/02/18 03:53:21;;;;;;;;;;;;;;;4.67;76.63;100579.85;105656;1256;96647;-75
2024/02/18 03:55:49;;;;;;;5.50;3.00;;;;;;;4.64;76.82;100582.02;105819;1255;96598;-84
2024/02/18 03:58:15;;;;;;;6.10;4.00;;;;;;;4.66;76.88;100578.64;105676;1255;107456;-81
2024/02/18 04:00:45;;;;;;;6.70;4.20;;;;;;;4.68;76.60;100578.25;105740;1254;96603;-81
2024/02/18 04:03:13;;;;;;;8.10;5.80;;;;;;;4.68;76.78;100577.53;105649;1254;96596;-83
2024/02/18 04:05:41;;;;;;;4.40;3.20;;;;;;;4.69;76.79;100583.86;105752;1251;96595;-77
2024/02/18 04:08:07;;;;;;;3.60;2.40;;;;;;;4.69;76.90;100582.09;105907;1254;97568;-81
2024/02/18 04:10:33;;;;;;;;;;;;;;;4.68;76.65;100584.23;105796;1251;96596;-81
2024/02/18 04:13:00;;;;;;;3.50;2.10;;;;;;;4.65;76.77;100588.70;105683;1254;96574;-81
2024/02/18 04:15:26;;;;;;;;;;;;;;;4.63;76.59;100592.41;105780;1250;96591;-79
2024/02/18 04:17:54;;;;;;;3.50;2.10;;;;;;;4.59;76.47;100591.80;105829;1254;96616;-80
2024/02/18 04:20:21;;;;;;;2.70;1.70;;;;;;;4.59;76.60;100593.58;105855;1254;107680;-80
2024/02/18 04:22:48;;;;;;;4.00;2.80;;;;;;;4.59;76.64;100593.55;105726;1251;96603;-80
2024/02/18 04:25:14;;;;;;;5.60;3.20;;;;;;;4.59;76.37;100590.04;105681;1256;97601;-80
2024/02/18 04:27:41;;;;;;;4.20;2.80;;;;;;;4.57;76.24;100590.95;105684;1251;97290;-81
2024/02/18 04:30:08;;;;;;;4.60;2.30;;;;;;;4.55;76.36;100591.55;106153;1251;96596;-78
2024/02/18 04:32:34;;;;;;;4.10;2.30;;;;;;;4.54;76.41;100595.45;105861;1253;96597;-80
2024/02/18 04:35:01;;;;;;;;;;;;;;;4.53;76.38;100594.74;105676;1251;96568;-79
2024/02/18 04:37:27;;;;;;;4.80;2.20;;;;;;;4.52;76.33;100596.71;105820;1251;96661;-80
2024/02/18 04:39:54;;;;;;;;;;;;;;;4.54;76.41;100598.77;105819;1251;96587;-81
2024/02/18 04:42:20;;;;;;;3.40;2.10;;;;;;;4.52;76.22;100597.40;105838;1254;96516;-80
2024/02/18 04:44:46;;;;;;;;;;;;;;;4.52;76.10;100599.16;105901;1254;96577;-80
2024/02/18 04:47:13;;;;;;;3.40;2.10;;;;;;;4.50;76.32;100600.97;105584;1254;97061;-81
2024/02/18 04:49:39;;;;;;;;;;;;;;;4.50;76.22;100602.02;105667;1251;96721;-78
2024/02/18 04:52:06;;;;;;;4.80;2.50;;;;;;;4.49;76.17;100608.19;105657;1267;96596;-78
2024/02/18 04:54:35;;;;;;;3.80;2.10;;;;;;;4.49;76.24;100604.85;105497;1251;96577;-81
2024/02/18 04:57:06;;;;;;;3.40;2.10;;;;;;;4.48;75.94;100609.09;105742;1253;109681;-81
2024/02/18 04:59:33;;;;;;;4.00;1.90;;;;;;;4.48;76.06;100615.44;105736;1251;96634;-82
2024/02/18 05:02:01;;;;;;;2.80;1.80;;;;;;;4.49;75.92;100620.86;105730;1257;96691;-80
2024/02/18 05:04:30;;;;;;;3.50;1.80;;;;;;;4.47;76.13;100618.60;105748;1254;97086;-78
2024/02/18 05:06:57;;;;;;;2.40;1.60;;;;;;;4.45;75.85;100624.43;105510;1253;97173;-75
2024/02/18 05:09:24;;;;;;;3.00;1.80;;;;;;;4.44;75.95;100626.23;105833;1251;97533;-80
2024/02/18 05:11:51;;;;;;;3.40;1.90;;;;;;;4.45;76.11;100626.05;105818;1254;96386;-78
2024/02/18 05:14:18;;;;;;;2.50;1.90;;;;;;;4.45;76.02;100630.25;105636;1253;96603;-81
2024/02/18 05:16:45;;;;;;;5.70;1.90;;;;;;;4.43;76.00;100629.23;105761;1250;97401;-80
2024/02/18 05:19:11;;;;;;;;;;;;;;;4.41;75.94;100635.61;105562;1256;97914;-81
2024/02/18 05:21:42;;;;;;;2.70;1.80;;;;;;;4.38;75.86;100636.71;105742;1255;96672;-79
2024/02/18 05:24:13;;;;;;;4.90;1.90;;;;;;;4.38;75.94;100639.73;105591;1257;107382;-80
2024/02/18 05:26:40;;;;;;;3.60;2.10;;;;;;;4.37;75.73;100642.36;105785;1251;96568;-78
2024/02/18 05:29:07;;;;;;;2.00;1.40;;;;;;;4.36;76.09;100645.55;105849;1253;96605;-80
2024/02/18 05:31:34;;;;;;;;;;;;;;;4.35;75.92;100654.86;105753;1254;97384;-81
2024/02/18 05:34:01;;;;;;;4.40;2.30;;;;;;;4.30;75.84;100655.31;105603;1257;97791;-79
2024/02/18 05:36:28;;;;;;;3.80;2.80;;;;;;;4.28;75.99;100661.36;105685;1257;97856;-79
2024/02/18 05:38:55;;;;;;;3.40;2.80;;;;;;;4.24;75.59;100667.23;105525;1251;97257;-79
2024/02/18 05:41:21;;;;;;;3.40;2.10;;;;;;;4.14;75.46;100671.11;105956;1257;96747;-77
2024/02/18 05:43:48;;;;;;;;;;;;;;;4.03;75.55;100676.95;105560;1257;96529;-80
2024/02/18 05:46:14;;;;;;;5.10;2.60;;;;;;;3.94;75.51;100683.61;105836;1251;96612;-80
2024/02/18 05:48:41;;;;;;;;;;;;;;;3.89;75.56;100694.42;105770;1256;97579;-80
2024/02/18 05:51:07;;;;;;;4.00;3.10;;;;;;;3.79;75.44;100691.10;105918;1253;96581;-81
2024/02/18 05:53:34;;;;;;;3.80;2.70;;;;;;;3.76;75.40;100694.84;105541;1257;96628;-79
2024/02/18 05:56:01;;;;;;;7.20;2.70;;;;;;;3.71;75.34;100698.41;105735;1257;96577;-80
2024/02/18 05:58:27;;;;;;;4.20;3.00;;;;;;;3.65;75.22;100702.40;105509;1264;97527;-80
2024/02/18 06:00:54;;;;;;;4.90;2.60;;;;;;;3.55;75.25;100708.52;105574;1251;96544;-77
2024/02/18 06:03:21;;;;;;;4.60;2.90;;;;;;;3.46;75.23;100711.14;105702;1251;97969;-76
2024/02/18 06:05:47;;;;;;;6.10;3.70;;;;;;;3.38;75.21;100710.92;105504;1254;107705;-79
2024/02/18 06:08:14;;;;;;;4.00;2.50;;;;;;;3.34;75.26;100708.36;107728;1253;96581;-81
2024/02/18 06:10:40;;;;;;;5.70;2.90;;;;;;;3.32;75.08;100713.13;105654;1251;96593;-79
2024/02/18 06:13:07;;;;;;;3.80;2.20;;;;;;;3.29;75.14;100714.23;105591;1254;96546;-79
2024/02/18 06:15:34;;;;;;;3.90;2.90;;;;;;;3.25;74.92;100717.27;105831;1254;96597;-79
2024/02/18 06:18:01;;;;;;;;;;;;;;;3.21;75.06;100718.75;105817;1251;97912;-77
2024/02/18 06:20:27;;;;;;;3.20;2.20;;;;;;;3.21;75.11;100722.96;105824;1253;96685;-77
2024/02/18 06:22:54;;;;;;;3.30;2.30;;;;;;;3.20;75.03;100723.16;105593;1252;96577;-80
2024/02/18 06:25:20;;;;;;;3.00;2.30;;;;;;;3.18;74.82;100719.32;105613;1252;97302;-80
2024/02/18 06:27:47;;;;;;;3.60;2.50;;;;;;;3.15;74.88;100720.23;105498;1253;96609;-78
2024/02/18 06:30:14;;;;;;;3.70;2.50;;;;;;;3.14;75.07;100724.11;105581;1255;97323;-79
2024/02/18 06:32:41;;;;;;;5.00;2.80;;;;;;;3.16;74.88;100724.44;105752;1254;96721;-79
2024/02/18 06:35:10;;;;;;;4.20;2.60;;;;;;;3.15;74.85;100726.55;105741;1253;96671;-80
2024/02/18 06:37:36;;;;;;;3.70;2.60;;;;;;;3.12;74.95;100732.73;105821;1253;107603;-79
2024/02/18 06:40:04;;;;;;;4.20;3.10;;;;;;;3.12;74.93;100733.44;105821;1257;96657;-81
2024/02/18 06:42:30;;;;;;;4.80;2.80;;;;;;;3.11;74.79;100732.92;105536;1257;97554;-79
2024/02/18 06:44:57;;;;;;;3.70;2.70;;;;;;;3.12;74.88;100736.41;105374;1255;96953;-79
2024/02/18 06:47:24;;;;;;;3.20;2.40;;;;;;;3.13;74.93;100737.96;105338;1253;96587;-82
2024/02/18 06:49:51;;;;;;;4.10;2.90;;;;;;;3.14;74.81;100742.70;105758;1273;96945;-79
2024/02/18 06:52:19;;;;;;;4.20;2.80;;;;;;;3.14;74.82;100740.05;105709;1254;97435;-78
2024/02/18 06:54:45;;;;;;;4.80;3.00;;;;;;;3.11;74.75;100739.05;105817;1264;110603;-79
2024/02/18 06:57:12;;;;;;;5.30;3.40;;;;;;;3.07;74.63;100738.92;106006;1250;96611;-79
2024/02/18 06:59:39;;;;;;;5.30;3.60;;;;;;;3.07;74.84;100745.06;105830;1261;96663;-80
2024/02/18 07:02:05;;;;;;;5.20;3.20;;;;;;;3.09;74.67;100747.67;105781;1251;96685;-73
2024/02/18 07:04:32;;;;;;;;;;;;;;;3.14;74.74;100749.70;105693;1251;97883;-70
2024/02/18 07:06:58;;;;;;;5.70;3.10;;;;;;;3.16;74.72;100752.67;105593;1254;96997;-73
2024/02/18 07:09:25;;;;;;;6.00;3.40;;;;;;;3.15;74.74;100755.83;105525;1251;96593;-71
2024/02/18 07:11:51;;;;;;;;;;;;;;;3.16;74.67;100754.41;106061;1251;97556;-71
2024/02/18 07:14:18;;;;;;;3.40;2.00;;;;;;;3.17;74.82;100754.56;105760;1253;96603;-71
2024/02/18 07:16:44;;;;;;;4.60;2.70;;;;;;;3.17;74.51;100756.84;105876;1251;97514;-72
2024/02/18 07:19:10;;;;;;;4.30;2.80;;;;;;;3.13;74.48;100759.53;105674;1251;107195;-72
2024/02/18 07:21:37;;;;;;;4.10;2.70;;;;;;;3.12;74.54;100761.46;105773;1254;97908;-71
2024/02/18 07:24:06;;;;;;;4.50;3.10;;;;;;;3.14;74.51;100761.98;105809;1254;97952;-72
2024/02/18 07:26:33;;;;;;;3.30;2.40;;;;;;;3.16;74.48;100761.42;105981;1251;97912;-70
2024/02/18 07:28:59;;;;;;;4.40;2.70;;;;;;;3.15;74.38;100761.95;106003;1254;96724;-70
2024/02/18 07:31:29;;;;;;;3.90;2.40;;;;;;;3.13;74.51;100757.26;106160;1254;96587;-72
2024/02/18 07:33:55;;;;;;;4.00;2.40;;;;;;;3.15;74.27;100758.81;105632;1256;96590;-72
2024/02/18 07:36:22;;;;;;;3.70;2.30;;;;;;;3.17;74.35;100761.92;105819;1254;96789;-73
2024/02/18 07:38:52;;;;;;;4.20;2.80;;;;;;;3.18;74.29;100763.67;105729;1252;109918;-73
2024/02/18 07:41:18;;;;;;;8.80;4.40;;;;;;;3.17;74.24;100769.48;105705;1254;96654;-72
2024/02/18 07:43:45;;;;;;;8.60;3.60;;;;;;;3.19;74.42;100771.71;105905;1254;97925;-71
2024/02/18 07:46:12;;;;;;;5.50;3.00;;;;;;;3.23;74.37;100773.42;105767;1254;97514;-72
2024/02/18 07:48:39;;;;;;;9.20;4.30;;;;;;;3.25;74.34;100773.56;105790;1251;96587;-72
2024/02/18 07:51:06;;;;;;;8.80;3.90;;;;;;;3.28;74.35;100777.37;105913;1255;96561;-71
2024/02/18 07:53:32;;;;;;;;;;;;;;;3.31;74.24;100780.13;105803;1254;97510;-72
2024/02/18 07:55:59;;;;;;;10.90;4.80;;;;;;;3.32;74.12;100779.94;105644;1254;96609;-71
2024/02/18 07:58:25;;;;;;;9.50;4.60;;;;;;;3.32;74.18;100783.10;105672;1254;96679;-72
2024/02/18 08:00:52;;;;;;;;;;;;;;;3.32;74.05;100784.49;105667;1254;96650;-73
2024/02/18 08:03:18;;;;;;;9.00;4.50;;;;;;;3.33;74.21;100786.05;105542;1255;96576;-72
2024/02/18 08:05:46;;;;;;;6.20;3.30;;;;;;;3.39;74.14;100790.88;105856;1251;97944;-72
2024/02/18 08:08:13;;;;;;;4.30;2.70;;;;;;;3.38;73.94;100795.63;105743;1249;96599;-72
2024/02/18 08:10:39;;;;;;;3.80;2.30;;;;;;;3.39;73.87;100800.01;105904;1252;96627;-71
2024/02/18 08:13:06;;;;;;;5.10;2.80;;;;;;;3.36;73.78;100808.98;105436;1257;97099;-72
2024/02/18 08:15:32;;;;;;;4.90;3.00;;;;;;;3.32;73.65;100805.36;105628;1265;96615;-73
2024/02/18 08:17:59;;;;;;;;;;;;;;;3.33;73.60;100811.66;105507;1251;96653;-70
2024/02/18 08:20:26;;;;;;;8.10;3.80;;;;;;;3.29;73.39;100813.13;105777;1251;109792;-71
2024/02/18 08:22:52;;;;;;;10.00;4.40;;;;;;;3.28;73.58;100804.55;105823;1253;97141;-74
2024/02/18 08:25:19;;;;;;;;;;;;;;;3.33;73.61;100806.40;105797;1256;96627;-71
2024/02/18 08:27:45;;;;;;;6.40;3.50;;;;;;;3.34;73.29;100802.72;105663;1257;96721;-72
2024/02/18 08:30:12;;;;;;;;;;;;;;;3.34;73.27;100809.19;105784;1254;109638;-72
2024/02/18 08:32:38;;;;;;;12.70;5.10;;;;;;;3.35;73.40;100810.77;105460;1252;97296;-72
2024/02/18 08:35:07;;;;;;;10.60;3.90;;;;;;;3.33;73.22;100809.02;105628;1254;96671;-71
2024/02/18 08:37:33;;;;;;;27.30;10.20;;;;;;;3.36;73.05;100811.62;106091;1254;96587;-72
2024/02/18 08:40:00;;;;;;;25.30;9.70;;;;;;;3.32;72.91;100809.91;105584;1250;96538;-71
2024/02/18 08:42:27;;;;;;;;;;;;;;;3.31;72.95;100809.06;105745;1253;96620;-73
2024/02/18 08:44:53;;;;;;;9.80;4.40;;;;;;;3.36;73.17;100807.77;105963;1253;96722;-73
2024/02/18 08:47:20;;;;;;;7.20;3.30;;;;;;;3.42;73.01;100807.14;105770;1254;97534;-71
2024/02/18 08:49:46;;;;;;;5.50;3.10;;;;;;;3.47;73.07;100813.73;105671;1254;96590;-74
2024/02/18 08:52:13;;;;;;;3.80;2.60;;;;;;;3.48;72.85;100813.20;106035;1251;97991;-71
2024/02/18 08:54:41;;;;;;;;;;;;;;;3.47;72.71;100808.98;105811;1253;96535;-71
2024/02/18 08:57:08;;;;;;;3.40;2.10;;;;;;;3.49;72.54;100813.89;105814;1257;96605;-73
2024/02/18 08:59:34;;;;;;;3.80;1.80;;;;;;;3.49;72.51;100817.39;105758;1251;97908;-71
2024/02/18 09:02:01;;;;;;;4.50;2.40;;;;;;;3.49;72.37;100818.08;105801;1254;96615;-71
2024/02/18 09:04:32;;;;;;;3.50;2.50;;;;;;;3.52;72.29;100817.52;105849;1251;109900;-72
2024/02/18 09:06:59;;;;;;;10.50;5.20;;;;;;;3.54;72.03;100820.63;105858;1251;97193;-71
2024/02/18 09:09:26;;;;;;;6.20;3.30;;;;;;;3.54;72.11;100823.80;105789;1254;97531;-73
2024/02/18 09:11:53;;;;;;;4.80;3.20;;;;;;;3.53;72.02;100825.73;105806;1254;96583;-72
2024/02/18 09:14:19;;;;;;;9.00;4.20;;;;;;;3.51;71.92;100828.23;105924;1257;96702;-71
2024/02/18 09:16:46;;;;;;;3.50;2.40;;;;;;;3.53;71.90;100828.89;105947;1250;96583;-72
2024/02/18 09:19:13;;;;;;;10.30;5.10;;;;;;;3.57;71.77;100832.54;105777;1257;97957;-73
2024/02/18 09:21:40;;;;;;;37.60;10.40;;;;;;;3.60;71.85;100833.01;105868;1253;96605;-72
2024/02/18 09:24:06;;;;;;;;;;;;;;;3.66;72.01;100833.63;105855;1263;96586;-71
2024/02/18 09:26:33;;;;;;;16.60;6.90;;;;;;;3.69;71.95;100828.98;105948;1255;97498;-73
2024/02/18 09:28:59;;;;;;;;;;;;;;;3.74;71.79;100835.42;105892;1253;96711;-74
2024/02/18 09:31:26;;;;;;;26.70;9.00;;;;;;;3.77;71.90;100838.19;105589;1254;97521;-71
2024/02/18 09:33:52;;;;;;;18.10;5.70;;;;;;;3.78;71.52;100837.11;105889;1253;97911;-73
2024/02/18 09:36:19;;;;;;;11.90;4.60;;;;;;;3.74;71.29;100836.65;105841;1253;96587;-70
2024/02/18 09:38:48;;;;;;;6.80;3.70;;;;;;;3.75;71.33;100842.77;105606;1254;96569;-71
2024/02/18 09:41:17;;;;;;;4.90;2.90;;;;;;;3.74;71.34;100839.80;105822;1257;97187;-71
2024/02/18 09:43:45;;;;;;;6.10;3.20;;;;;;;3.80;71.55;100841.46;105570;1257;96685;-71
2024/02/18 09:46:13;;;;;;;5.10;3.10;;;;;;;3.82;71.09;100838.45;105638;1251;96630;-72
2024/02/18 09:48:41;;;;;;;4.00;2.60;;;;;;;3.80;70.88;100834.29;105846;1254;110018;-72
2024/02/18 09:51:10;;;;;;;6.40;3.20;;;;;;;3.79;71.13;100831.83;105962;1254;97915;-74
2024/02/18 09:53:37;;;;;;;7.80;3.70;;;;;;;3.81;70.96;100831.10;105727;1263;107080;-70
2024/02/18 09:56:06;;;;;;;7.60;3.40;;;;;;;3.82;71.01;100834.77;105637;1255;96753;-71
2024/02/18 09:58:34;;;;;;;7.20;4.20;;;;;;;3.79;71.04;100832.55;105708;1251;96583;-70
2024/02/18 10:01:01;;;;;;;5.30;2.70;;;;;;;3.79;70.81;100838.32;105735;1253;96673;-72
2024/02/18 10:03:28;;;;;;;5.50;3.10;;;;;;;3.74;70.77;100834.72;105623;1268;96612;-72
2024/02/18 10:05:55;;;;;;;4.90;2.80;;;;;;;3.71;70.86;100833.20;105792;1265;96581;-72
2024/02/18 10:08:21;;;;;;;4.50;2.90;;;;;;;3.71;70.84;100830.72;105869;1257;96670;-71
2024/02/18 10:10:48;;;;;;;;;;;;;;;3.73;70.92;100824.02;105574;1251;96782;-72
2024/02/18 10:13:15;;;;;;;11.00;3.80;;;;;;;3.79;71.05;100822.18;105725;1267;97105;-72
2024/02/18 10:15:41;;;;;;;;;;;;;;;3.85;70.94;100822.80;105782;1253;106713;-72
2024/02/18 10:18:13;;;;;;;4.30;2.70;;;;;;;3.84;70.76;100818.77;105899;1263;97210;-71
2024/02/18 10:20:41;;;;;;;4.80;2.90;;;;;;;3.85;70.67;100816.65;105595;1257;97378;-70
2024/02/18 10:23:10;;;;;;;3.60;2.20;;;;;;;3.81;70.29;100821.80;105602;1263;109286;-71
2024/02/18 10:25:36;;;;;;;4.30;2.70;;;;;;;3.80;70.22;100821.11;105682;1256;96571;-72
2024/02/18 10:28:05;;;;;;;4.40;2.60;;;;;;;3.80;70.35;100818.66;105635;1267;97248;-73
2024/02/18 10:30:31;;;;;;;6.10;2.90;;;;;;;3.79;70.32;100815.34;105875;1257;96580;-72
2024/02/18 10:32:58;;;;;;;15.40;5.40;;;;;;;3.81;70.26;100817.41;105843;1257;96603;-69
2024/02/18 10:35:24;;;;;;;13.40;4.80;;;;;;;3.84;70.40;100818.59;105589;1257;96679;-70
2024/02/18 10:37:56;;;;;;;10.30;4.40;;;;;;;3.85;70.34;100813.48;105815;1267;96610;-71
2024/02/18 10:40:28;;;;;;;9.90;3.90;;;;;;;3.84;70.23;100813.67;105990;1253;108236;-72
2024/02/18 10:43:01;;;;;;;16.60;7.90;;;;;;;3.80;70.05;100810.60;105858;1257;96591;-73
2024/02/18 10:45:30;;;;;;;8.50;4.50;;;;;;;3.77;69.87;100808.71;105752;1254;97057;-71
2024/02/18 10:48:00;;;;;;;17.10;7.70;;;;;;;3.74;69.69;100801.91;105721;1257;109322;-70
2024/02/18 10:50:30;;;;;;;20.00;7.10;;;;;;;3.75;69.65;100803.13;105972;1254;96680;-70
2024/02/18 10:53:25;;;;;;;11.40;5.00;;;;;;;3.78;69.98;100800.44;105558;1257;105855;-70
2024/02/18 10:56:05;;;;;;;8.20;3.20;;;;;;;3.85;70.03;100801.20;105717;1264;96928;-72
2024/02/18 10:58:53;;;;;;;7.10;4.20;;;;;;;3.86;69.42;100798.38;105731;1254;96603;-72
2024/02/18 11:03:54;;;;;;;;;;;;;;;3.78;69.36;100796.58;103071;1287;636898;-73
2024/02/18 11:06:23;;;;;;;3.60;2.50;;;;;;;3.72;69.33;100791.05;104636;1273;94359;-70
2024/02/18 11:08:54;;;;;;;5.40;3.40;;;;;;;3.73;69.29;100791.20;104763;1273;94729;-72
2024/02/18 11:11:29;;;;;;;6.20;3.20;;;;;;;3.76;69.30;100788.89;104388;1273;107322;-71
2024/02/18 11:13:59;;;;;;;8.70;4.00;;;;;;;3.79;69.36;100783.92;105402;1260;95692;-71
2024/02/18 11:16:28;;;;;;;10.20;3.60;;;;;;;3.84;69.05;100778.57;99105;1254;9303506;-73
2024/02/18 11:19:00;;;;;;;;;;;;;;;3.84;69.21;100775.25;105575;1266;94376;-74
2024/02/18 11:21:30;;;;;;;6.70;4.00;;;;;;;3.89;69.21;100772.69;105837;1256;106391;-70
2024/02/18 11:23:58;;;;;;;9.30;5.00;;;;;;;3.95;69.18;100765.75;105637;1260;95830;-71
2024/02/18 11:26:27;;;;;;;9.10;3.70;;;;;;;3.98;69.11;100760.59;105514;1256;107926;-72
2024/02/18 11:29:02;;;;;;;5.20;2.90;;;;;;;4.01;69.14;100761.60;105522;1258;95051;-70
2024/02/18 11:31:30;;;;;;;12.20;6.20;;;;;;;4.08;69.13;100760.59;105613;1256;95217;-70
2024/02/18 11:33:58;;;;;;;4.90;2.90;;;;;;;4.09;68.77;100759.52;105560;1256;108636;-73
2024/02/18 11:36:27;;;;;;;3.90;2.60;;;;;;;4.08;68.63;100761.81;105663;1267;96556;-72